sensor_id;sensor_type;location;lat;lon;timestamp;pressure;altitude;pressure_sealevel;temperature;humidity
36600;BME280;35385;55.668;37.508;2023-04-03T00:00:12;98896.44;;;8.73;100.00
36600;BME280;35385;55.668;37.508;2023-04-03T00:01:13;99012.81;;;9.43;100.00
36600;BME280;35385;55.668;37.508;2023-04-03T00:02:13;98979.09;;;9.32;100.00
36600;BME280;35385;55.668;37.508;2023-04-03T00:03:14;98991.03;;;9.38;100.00
36600;BME280;35385;55.668;37.508;2023-04-03T00:04:14;99012.56;;;9.55;100.00
36600;BME280;35385;55.668;37.508;2023-04-03T00:05:15;99010.88;;;9.54;100.00
36600;BME280;35385;55.668;37.508;2023-04-03T00:06:16;99019.03;;;9.63;100.00
36600;BME280;35385;55.668;37.508;2023-04-03T00:07:16;99007.50;;;9.52;100.00
36600;BME280;35385;55.668;37.508;2023-04-03T00:08:17;99025.78;;;9.67;100.00
36600;BME280;35385;55.668;37.508;2023-04-03T00:09:17;98981.22;;;9.38;100.00
36600;BME280;35385;55.668;37.508;2023-04-03T00:10:18;99017.09;;;9.65;100.00
36600;BME280;35385;55.668;37.508;2023-04-03T00:11:19;99027.06;;;9.72;100.00
36600;BME280;35385;55.668;37.508;2023-04-03T00:12:20;99024.38;;;9.63;100.00
36600;BME280;35385;55.668;37.508;2023-04-03T00:13:21;98978.84;;;9.35;100.00
36600;BME280;35385;55.668;37.508;2023-04-03T00:14:21;99026.47;;;9.59;100.00
36600;BME280;35385;55.668;37.508;2023-04-03T00:15:22;99026.06;;;9.64;100.00
36600;BME280;35385;55.668;37.508;2023-04-03T00:16:22;99023.66;;;9.61;100.00
36600;BME280;35385;55.668;37.508;2023-04-03T00:17:23;98974.06;;;9.39;100.00
36600;BME280;35385;55.668;37.508;2023-04-03T00:18:24;99022.97;;;9.68;100.00
36600;BME280;35385;55.668;37.508;2023-04-03T00:19:25;99021.44;;;9.66;100.00
36600;BME280;35385;55.668;37.508;2023-04-03T00:20:25;99022.84;;;9.70;100.00
36600;BME280;35385;55.668;37.508;2023-04-03T00:21:27;99029.59;;;9.74;100.00
36600;BME280;35385;55.668;37.508;2023-04-03T00:22:27;98990.09;;;9.48;100.00
36600;BME280;35385;55.668;37.508;2023-04-03T00:23:28;99033.94;;;9.65;100.00
36600;BME280;35385;55.668;37.508;2023-04-03T00:24:29;99017.19;;;9.53;100.00
36600;BME280;35385;55.668;37.508;2023-04-03T00:25:30;99014.69;;;9.52;100.00
36600;BME280;35385;55.668;37.508;2023-04-03T00:26:30;99017.47;;;9.50;100.00
36600;BME280;35385;55.668;37.508;2023-04-03T00:27:31;99022.34;;;9.45;100.00
36600;BME280;35385;55.668;37.508;2023-04-03T00:28:31;99012.78;;;9.33;100.00
36600;BME280;35385;55.668;37.508;2023-04-03T00:29:32;99009.84;;;9.36;100.00
36600;BME280;35385;55.668;37.508;2023-04-03T00:30:32;99011.38;;;9.39;100.00
36600;BME280;35385;55.668;37.508;2023-04-03T00:31:33;99009.16;;;9.44;100.00
36600;BME280;35385;55.668;37.508;2023-04-03T00:32:33;99019.81;;;9.44;100.00
36600;BME280;35385;55.668;37.508;2023-04-03T00:33:34;99004.66;;;9.35;100.00
36600;BME280;35385;55.668;37.508;2023-04-03T00:34:35;99022.03;;;9.39;100.00
36600;BME280;35385;55.668;37.508;2023-04-03T00:35:35;98965.69;;;9.13;100.00
36600;BME280;35385;55.668;37.508;2023-04-03T00:36:36;98975.56;;;9.22;100.00
36600;BME280;35385;55.668;37.508;2023-04-03T00:37:36;99007.19;;;9.46;100.00
36600;BME280;35385;55.668;37.508;2023-04-03T00:38:37;99015.09;;;9.57;100.00
36600;BME280;35385;55.668;37.508;2023-04-03T00:39:37;99013.00;;;9.61;100.00
36600;BME280;35385;55.668;37.508;2023-04-03T00:40:42;99015.53;;;9.62;100.00
36600;BME280;35385;55.668;37.508;2023-04-03T00:41:43;98979.09;;;9.32;100.00
36600;BME280;35385;55.668;37.508;2023-04-03T00:42:46;99025.19;;;9.53;100.00
36600;BME280;35385;55.668;37.508;2023-04-03T00:43:47;99010.97;;;9.43;100.00
36600;BME280;35385;55.668;37.508;2023-04-03T00:45:52;99020.41;;;9.57;100.00
36600;BME280;35385;55.668;37.508;2023-04-03T00:46:53;99022.69;;;9.62;100.00
36600;BME280;35385;55.668;37.508;2023-04-03T00:47:54;99023.81;;;9.69;100.00
36600;BME280;35385;55.668;37.508;2023-04-03T00:48:55;99018.47;;;9.69;100.00
36600;BME280;35385;55.668;37.508;2023-04-03T00:49:56;99022.69;;;9.62;100.00
36600;BME280;35385;55.668;37.508;2023-04-03T00:50:58;99026.78;;;9.66;100.00
36600;BME280;35385;55.668;37.508;2023-04-03T00:51:59;99026.22;;;9.72;100.00
36600;BME280;35385;55.668;37.508;2023-04-03T00:53:00;99020.75;;;9.64;100.00
36600;BME280;35385;55.668;37.508;2023-04-03T00:54:03;99007.06;;;9.47;100.00
36600;BME280;35385;55.668;37.508;2023-04-03T00:55:07;99024.91;;;9.56;100.00
36600;BME280;35385;55.668;37.508;2023-04-03T00:56:10;99006.34;;;9.45;100.00
36600;BME280;35385;55.668;37.508;2023-04-03T00:57:12;99014.22;;;9.47;100.00
36600;BME280;35385;55.668;37.508;2023-04-03T00:58:16;99019.00;;;9.53;100.00
36600;BME280;35385;55.668;37.508;2023-04-03T00:59:27;99013.13;;;9.59;100.00
36600;BME280;35385;55.668;37.508;2023-04-03T01:00:30;99021.81;;;9.51;100.00
36600;BME280;35385;55.668;37.508;2023-04-03T01:01:31;99028.97;;;9.51;100.00
36600;BME280;35385;55.668;37.508;2023-04-03T01:02:31;99008.06;;;9.46;100.00
36600;BME280;35385;55.668;37.508;2023-04-03T01:03:32;98977.69;;;9.28;100.00
36600;BME280;35385;55.668;37.508;2023-04-03T01:04:41;99019.72;;;9.55;100.00
36600;BME280;35385;55.668;37.508;2023-04-03T01:05:42;98969.09;;;9.25;100.00
36600;BME280;35385;55.668;37.508;2023-04-03T01:06:42;99023.50;;;9.52;100.00
36600;BME280;35385;55.668;37.508;2023-04-03T01:07:43;98971.47;;;9.18;100.00
36600;BME280;35385;55.668;37.508;2023-04-03T01:08:48;98912.88;;;8.88;100.00
36600;BME280;35385;55.668;37.508;2023-04-03T01:09:52;99001.56;;;9.39;100.00
36600;BME280;35385;55.668;37.508;2023-04-03T01:10:53;99014.94;;;9.49;100.00
36600;BME280;35385;55.668;37.508;2023-04-03T01:11:53;99017.28;;;9.42;100.00
36600;BME280;35385;55.668;37.508;2023-04-03T01:12:54;98969.34;;;9.12;100.00
36600;BME280;35385;55.668;37.508;2023-04-03T01:13:55;98966.50;;;9.04;100.00
36600;BME280;35385;55.668;37.508;2023-04-03T01:15:01;99014.47;;;9.34;100.00
36600;BME280;35385;55.668;37.508;2023-04-03T01:16:05;99020.34;;;9.38;100.00
36600;BME280;35385;55.668;37.508;2023-04-03T01:17:40;99018.13;;;9.43;100.00
36600;BME280;35385;55.668;37.508;2023-04-03T01:18:42;99021.91;;;9.40;100.00
36600;BME280;35385;55.668;37.508;2023-04-03T01:19:45;99023.31;;;9.35;100.00
36600;BME280;35385;55.668;37.508;2023-04-03T01:22:28;99024.28;;;9.34;100.00
36600;BME280;35385;55.668;37.508;2023-04-03T01:23:40;99016.94;;;9.26;100.00
36600;BME280;35385;55.668;37.508;2023-04-03T01:24:44;99019.34;;;9.29;100.00
36600;BME280;35385;55.668;37.508;2023-04-03T01:25:52;99033.38;;;9.31;100.00
36600;BME280;35385;55.668;37.508;2023-04-03T01:26:53;99013.03;;;9.30;100.00
36600;BME280;35385;55.668;37.508;2023-04-03T01:27:54;99029.63;;;9.43;100.00
36600;BME280;35385;55.668;37.508;2023-04-03T01:28:55;99016.72;;;9.39;100.00
36600;BME280;35385;55.668;37.508;2023-04-03T01:29:55;99023.59;;;9.41;100.00
36600;BME280;35385;55.668;37.508;2023-04-03T01:31:28;99028.41;;;9.47;100.00
36600;BME280;35385;55.668;37.508;2023-04-03T01:32:32;99027.38;;;9.39;100.00
36600;BME280;35385;55.668;37.508;2023-04-03T01:33:32;99020.06;;;9.31;100.00
36600;BME280;35385;55.668;37.508;2023-04-03T01:34:33;98995.56;;;9.07;100.00
36600;BME280;35385;55.668;37.508;2023-04-03T01:35:33;98976.28;;;8.94;100.00
36600;BME280;35385;55.668;37.508;2023-04-03T01:36:34;99026.50;;;9.29;100.00
36600;BME280;35385;55.668;37.508;2023-04-03T01:37:35;99034.63;;;9.27;100.00
36600;BME280;35385;55.668;37.508;2023-04-03T01:38:35;99019.69;;;9.15;100.00
36600;BME280;35385;55.668;37.508;2023-04-03T01:39:36;99018.81;;;9.05;100.00
36600;BME280;35385;55.668;37.508;2023-04-03T01:40:37;99013.91;;;9.10;100.00
36600;BME280;35385;55.668;37.508;2023-04-03T01:41:38;99033.34;;;9.21;100.00
36600;BME280;35385;55.668;37.508;2023-04-03T01:42:38;99016.31;;;9.13;100.00
36600;BME280;35385;55.668;37.508;2023-04-03T01:43:39;99025.75;;;9.17;100.00
36600;BME280;35385;55.668;37.508;2023-04-03T01:44:40;99037.28;;;9.27;100.00
36600;BME280;35385;55.668;37.508;2023-04-03T01:45:41;99030.97;;;9.28;100.00
36600;BME280;35385;55.668;37.508;2023-04-03T01:46:41;99039.53;;;9.22;100.00
36600;BME280;35385;55.668;37.508;2023-04-03T01:47:42;99030.81;;;9.20;100.00
36600;BME280;35385;55.668;37.508;2023-04-03T01:48:43;99026.97;;;9.13;100.00
36600;BME280;35385;55.668;37.508;2023-04-03T01:49:43;99019.69;;;9.15;100.00
36600;BME280;35385;55.668;37.508;2023-04-03T01:50:44;99032.22;;;9.24;100.00
36600;BME280;35385;55.668;37.508;2023-04-03T01:51:45;98993.41;;;9.01;100.00
36600;BME280;35385;55.668;37.508;2023-04-03T01:52:45;99021.13;;;9.19;100.00
36600;BME280;35385;55.668;37.508;2023-04-03T01:53:46;99014.25;;;9.16;100.00
36600;BME280;35385;55.668;37.508;2023-04-03T01:54:46;99023.38;;;9.23;100.00
36600;BME280;35385;55.668;37.508;2023-04-03T01:55:48;99030.72;;;9.31;100.00
36600;BME280;35385;55.668;37.508;2023-04-03T01:56:48;99025.66;;;9.28;100.00
36600;BME280;35385;55.668;37.508;2023-04-03T01:57:49;99034.88;;;9.24;100.00
36600;BME280;35385;55.668;37.508;2023-04-03T01:58:49;99029.00;;;9.20;100.00
36600;BME280;35385;55.668;37.508;2023-04-03T01:59:50;98991.97;;;8.97;100.00
36600;BME280;35385;55.668;37.508;2023-04-03T02:00:52;99020.94;;;9.11;100.00
36600;BME280;35385;55.668;37.508;2023-04-03T02:01:53;99032.75;;;9.18;100.00
36600;BME280;35385;55.668;37.508;2023-04-03T02:02:53;99025.56;;;9.09;100.00
36600;BME280;35385;55.668;37.508;2023-04-03T02:03:54;99025.56;;;9.09;100.00
36600;BME280;35385;55.668;37.508;2023-04-03T02:04:54;99019.22;;;9.00;100.00
36600;BME280;35385;55.668;37.508;2023-04-03T02:05:55;99038.75;;;9.10;100.00
36600;BME280;35385;55.668;37.508;2023-04-03T02:06:56;99019.13;;;9.11;100.00
36600;BME280;35385;55.668;37.508;2023-04-03T02:07:56;99027.81;;;9.13;100.00
36600;BME280;35385;55.668;37.508;2023-04-03T02:08:57;99030.63;;;9.12;100.00
36600;BME280;35385;55.668;37.508;2023-04-03T02:09:57;99017.41;;;9.10;100.00
36600;BME280;35385;55.668;37.508;2023-04-03T02:10:58;99031.72;;;9.09;100.00
36600;BME280;35385;55.668;37.508;2023-04-03T02:11:58;99028.88;;;9.01;100.00
36600;BME280;35385;55.668;37.508;2023-04-03T02:12:59;99030.69;;;9.01;100.00
36600;BME280;35385;55.668;37.508;2023-04-03T02:13:59;99016.50;;;8.91;100.00
36600;BME280;35385;55.668;37.508;2023-04-03T02:15:00;99019.28;;;8.89;100.00
36600;BME280;35385;55.668;37.508;2023-04-03T02:16:07;98996.75;;;8.72;100.00
36600;BME280;35385;55.668;37.508;2023-04-03T02:17:08;99006.31;;;8.75;100.00
36600;BME280;35385;55.668;37.508;2023-04-03T02:18:09;99023.72;;;8.79;100.00
36600;BME280;35385;55.668;37.508;2023-04-03T02:19:10;99023.13;;;8.75;100.00
36600;BME280;35385;55.668;37.508;2023-04-03T02:20:10;99027.16;;;8.91;100.00
36600;BME280;35385;55.668;37.508;2023-04-03T02:21:11;98963.72;;;8.54;100.00
36600;BME280;35385;55.668;37.508;2023-04-03T02:22:12;99024.63;;;8.89;100.00
36600;BME280;35385;55.668;37.508;2023-04-03T02:23:12;99023.81;;;8.98;100.00
36600;BME280;35385;55.668;37.508;2023-04-03T02:24:13;99024.28;;;9.03;100.00
36600;BME280;35385;55.668;37.508;2023-04-03T02:25:13;98978.72;;;8.76;100.00
36600;BME280;35385;55.668;37.508;2023-04-03T02:26:15;99015.69;;;9.00;100.00
36600;BME280;35385;55.668;37.508;2023-04-03T02:27:16;99029.66;;;9.13;100.00
36600;BME280;35385;55.668;37.508;2023-04-03T02:28:17;99041.28;;;9.12;100.00
36600;BME280;35385;55.668;37.508;2023-04-03T02:29:17;99026.94;;;9.03;100.00
36600;BME280;35385;55.668;37.508;2023-04-03T02:30:18;99004.03;;;8.70;100.00
36600;BME280;35385;55.668;37.508;2023-04-03T02:31:18;99026.22;;;8.80;100.00
36600;BME280;35385;55.668;37.508;2023-04-03T02:32:19;99026.81;;;8.84;100.00
36600;BME280;35385;55.668;37.508;2023-04-03T02:33:20;99031.16;;;8.85;100.00
36600;BME280;35385;55.668;37.508;2023-04-03T02:34:20;99025.97;;;8.83;100.00
36600;BME280;35385;55.668;37.508;2023-04-03T02:35:21;99031.25;;;8.74;100.00
36600;BME280;35385;55.668;37.508;2023-04-03T02:36:21;99025.59;;;8.67;100.00
36600;BME280;35385;55.668;37.508;2023-04-03T02:37:22;99029.31;;;8.76;100.00
36600;BME280;35385;55.668;37.508;2023-04-03T02:38:23;98956.47;;;8.35;100.00
36600;BME280;35385;55.668;37.508;2023-04-03T02:39:23;99019.16;;;8.70;100.00
36600;BME280;35385;55.668;37.508;2023-04-03T02:40:24;99023.97;;;8.76;100.00
36600;BME280;35385;55.668;37.508;2023-04-03T02:41:25;99026.22;;;8.80;100.00
36600;BME280;35385;55.668;37.508;2023-04-03T02:42:28;99016.97;;;8.75;100.00
36600;BME280;35385;55.668;37.508;2023-04-03T02:43:29;99020.13;;;8.69;100.00
36600;BME280;35385;55.668;37.508;2023-04-03T02:44:29;99018.31;;;8.69;100.00
36600;BME280;35385;55.668;37.508;2023-04-03T02:45:30;99034.88;;;8.73;100.00
36600;BME280;35385;55.668;37.508;2023-04-03T02:46:30;99024.81;;;8.76;100.00
36600;BME280;35385;55.668;37.508;2023-04-03T02:47:31;99023.00;;;8.77;100.00
36600;BME280;35385;55.668;37.508;2023-04-03T02:48:32;98944.59;;;8.28;100.00
36600;BME280;35385;55.668;37.508;2023-04-03T02:49:32;99020.25;;;8.67;100.00
36600;BME280;35385;55.668;37.508;2023-04-03T02:50:33;99026.19;;;8.71;100.00
36600;BME280;35385;55.668;37.508;2023-04-03T02:51:34;99034.03;;;8.72;100.00
36600;BME280;35385;55.668;37.508;2023-04-03T02:52:34;99027.88;;;8.72;100.00
36600;BME280;35385;55.668;37.508;2023-04-03T02:53:35;99027.75;;;8.73;100.00
36600;BME280;35385;55.668;37.508;2023-04-03T02:54:35;99035.47;;;8.76;100.00
36600;BME280;35385;55.668;37.508;2023-04-03T02:55:36;99027.03;;;8.71;100.00
36600;BME280;35385;55.668;37.508;2023-04-03T02:56:37;99018.84;;;8.63;100.00
36600;BME280;35385;55.668;37.508;2023-04-03T02:57:37;98994.50;;;8.47;100.00
36600;BME280;35385;55.668;37.508;2023-04-03T02:58:38;99016.56;;;8.59;100.00
36600;BME280;35385;55.668;37.508;2023-04-03T02:59:38;98979.44;;;8.36;100.00
36600;BME280;35385;55.668;37.508;2023-04-03T03:00:42;98983.75;;;8.37;100.00
36600;BME280;35385;55.668;37.508;2023-04-03T03:01:42;99038.97;;;8.56;100.00
36600;BME280;35385;55.668;37.508;2023-04-03T03:02:43;99032.47;;;8.49;100.00
36600;BME280;35385;55.668;37.508;2023-04-03T03:03:44;99007.88;;;8.36;100.00
36600;BME280;35385;55.668;37.508;2023-04-03T03:04:44;99029.00;;;8.37;100.00
36600;BME280;35385;55.668;37.508;2023-04-03T03:05:45;99045.31;;;8.44;100.00
36600;BME280;35385;55.668;37.508;2023-04-03T03:06:45;99014.88;;;8.26;100.00
36600;BME280;35385;55.668;37.508;2023-04-03T03:07:47;98954.09;;;7.89;100.00
36600;BME280;35385;55.668;37.508;2023-04-03T03:08:47;99040.13;;;8.42;100.00
36600;BME280;35385;55.668;37.508;2023-04-03T03:09:48;99026.75;;;8.33;100.00
36600;BME280;35385;55.668;37.508;2023-04-03T03:10:48;99036.88;;;8.39;100.00
36600;BME280;35385;55.668;37.508;2023-04-03T03:11:51;99009.56;;;8.26;100.00
36600;BME280;35385;55.668;37.508;2023-04-03T03:12:51;99033.13;;;8.30;100.00
36600;BME280;35385;55.668;37.508;2023-04-03T03:13:52;98980.16;;;7.95;100.00
36600;BME280;35385;55.668;37.508;2023-04-03T03:14:53;99039.22;;;8.32;100.00
36600;BME280;35385;55.668;37.508;2023-04-03T03:15:53;99041.63;;;8.35;100.00
36600;BME280;35385;55.668;37.508;2023-04-03T03:16:54;99041.03;;;8.32;100.00
36600;BME280;35385;55.668;37.508;2023-04-03T03:17:55;99027.72;;;8.32;100.00
36600;BME280;35385;55.668;37.508;2023-04-03T03:18:55;98998.50;;;8.09;100.00
36600;BME280;35385;55.668;37.508;2023-04-03T03:19:56;99029.16;;;8.36;100.00
36600;BME280;35385;55.668;37.508;2023-04-03T03:20:58;99046.66;;;8.38;100.00
36600;BME280;35385;55.668;37.508;2023-04-03T03:21:58;99039.66;;;8.37;100.00
36600;BME280;35385;55.668;37.508;2023-04-03T03:22:59;99043.56;;;8.33;100.00
36600;BME280;35385;55.668;37.508;2023-04-03T03:24:00;98988.03;;;7.97;100.00
36600;BME280;35385;55.668;37.508;2023-04-03T03:25:01;99009.13;;;8.09;100.00
36600;BME280;35385;55.668;37.508;2023-04-03T03:26:05;99029.16;;;8.25;100.00
36600;BME280;35385;55.668;37.508;2023-04-03T03:27:05;99025.31;;;8.18;100.00
36600;BME280;35385;55.668;37.508;2023-04-03T03:28:06;99030.97;;;8.24;100.00
36600;BME280;35385;55.668;37.508;2023-04-03T03:29:08;99040.50;;;8.27;100.00
36600;BME280;35385;55.668;37.508;2023-04-03T03:30:09;99041.47;;;8.26;100.00
36600;BME280;35385;55.668;37.508;2023-04-03T03:31:10;99033.63;;;8.24;100.00
36600;BME280;35385;55.668;37.508;2023-04-03T03:32:12;99028.34;;;8.13;100.00
36600;BME280;35385;55.668;37.508;2023-04-03T03:33:12;99042.72;;;8.33;100.00
36600;BME280;35385;55.668;37.508;2023-04-03T03:34:13;99033.47;;;8.37;100.00
36600;BME280;35385;55.668;37.508;2023-04-03T03:35:14;99040.78;;;8.35;100.00
36600;BME280;35385;55.668;37.508;2023-04-03T03:36:14;98951.94;;;7.83;100.00
36600;BME280;35385;55.668;37.508;2023-04-03T03:37:15;99032.78;;;8.35;100.00
36600;BME280;35385;55.668;37.508;2023-04-03T03:38:15;99023.56;;;8.28;100.00
36600;BME280;35385;55.668;37.508;2023-04-03T03:39:16;99027.22;;;8.27;100.00
36600;BME280;35385;55.668;37.508;2023-04-03T03:40:16;99037.47;;;8.31;100.00
36600;BME280;35385;55.668;37.508;2023-04-03T03:41:17;99035.31;;;8.25;100.00
36600;BME280;35385;55.668;37.508;2023-04-03T03:42:17;99034.19;;;8.39;100.00
36600;BME280;35385;55.668;37.508;2023-04-03T03:43:18;99040.13;;;8.42;100.00
36600;BME280;35385;55.668;37.508;2023-04-03T03:44:20;99029.84;;;8.38;100.00
36600;BME280;35385;55.668;37.508;2023-04-03T03:45:21;99041.81;;;8.43;100.00
36600;BME280;35385;55.668;37.508;2023-04-03T03:46:21;99033.22;;;8.40;100.00
36600;BME280;35385;55.668;37.508;2023-04-03T03:47:22;99037.13;;;8.36;100.00
36600;BME280;35385;55.668;37.508;2023-04-03T03:48:23;99040.38;;;8.39;100.00
36600;BME280;35385;55.668;37.508;2023-04-03T03:49:23;99015.72;;;8.26;100.00
36600;BME280;35385;55.668;37.508;2023-04-03T03:50:24;99024.53;;;8.38;100.00
36600;BME280;35385;55.668;37.508;2023-04-03T03:51:24;99029.84;;;8.38;100.00
36600;BME280;35385;55.668;37.508;2023-04-03T03:52:25;99031.28;;;8.42;100.00
36600;BME280;35385;55.668;37.508;2023-04-03T03:53:26;99031.28;;;8.42;100.00
36600;BME280;35385;55.668;37.508;2023-04-03T03:54:26;99046.16;;;8.44;100.00
36600;BME280;35385;55.668;37.508;2023-04-03T03:55:27;99002.28;;;8.28;100.00
36600;BME280;35385;55.668;37.508;2023-04-03T03:56:27;99036.38;;;8.45;100.00
36600;BME280;35385;55.668;37.508;2023-04-03T03:57:28;99010.78;;;8.33;100.00
36600;BME280;35385;55.668;37.508;2023-04-03T03:58:29;99035.00;;;8.50;100.00
36600;BME280;35385;55.668;37.508;2023-04-03T03:59:29;99031.94;;;8.55;100.00
36600;BME280;35385;55.668;37.508;2023-04-03T04:00:30;99037.28;;;8.55;100.00
36600;BME280;35385;55.668;37.508;2023-04-03T04:01:31;98998.44;;;8.32;100.00
36600;BME280;35385;55.668;37.508;2023-04-03T04:02:31;99042.16;;;8.50;100.00
36600;BME280;35385;55.668;37.508;2023-04-03T04:03:32;99028.50;;;8.43;100.00
36600;BME280;35385;55.668;37.508;2023-04-03T04:04:33;99043.69;;;8.52;100.00
36600;BME280;35385;55.668;37.508;2023-04-03T04:05:33;99047.66;;;8.58;100.00
36600;BME280;35385;55.668;37.508;2023-04-03T04:06:34;99028.00;;;8.49;100.00
36600;BME280;35385;55.668;37.508;2023-04-03T04:07:35;99042.09;;;8.61;100.00
36600;BME280;35385;55.668;37.508;2023-04-03T04:08:35;99031.94;;;8.55;100.00
36600;BME280;35385;55.668;37.508;2023-04-03T04:09:36;99037.22;;;8.66;100.00
36600;BME280;35385;55.668;37.508;2023-04-03T04:10:37;99044.34;;;8.66;100.00
36600;BME280;35385;55.668;37.508;2023-04-03T04:11:38;99041.69;;;8.66;100.00
36600;BME280;35385;55.668;37.508;2023-04-03T04:12:40;99036.78;;;8.61;100.00
36600;BME280;35385;55.668;37.508;2023-04-03T04:13:40;99049.41;;;8.69;100.00
36600;BME280;35385;55.668;37.508;2023-04-03T04:14:41;99002.75;;;8.44;100.00
36600;BME280;35385;55.668;37.508;2023-04-03T04:15:42;99055.47;;;8.71;100.00
36600;BME280;35385;55.668;37.508;2023-04-03T04:16:43;99030.06;;;8.67;100.00
36600;BME280;35385;55.668;37.508;2023-04-03T04:17:44;99045.66;;;8.71;100.00
36600;BME280;35385;55.668;37.508;2023-04-03T04:18:44;99006.38;;;8.43;100.00
36600;BME280;35385;55.668;37.508;2023-04-03T04:19:45;99050.50;;;8.66;100.00
36600;BME280;35385;55.668;37.508;2023-04-03T04:20:46;99054.44;;;8.62;100.00
36600;BME280;35385;55.668;37.508;2023-04-03T04:21:46;99054.22;;;8.54;100.00
36600;BME280;35385;55.668;37.508;2023-04-03T04:22:47;99056.63;;;8.57;100.00
36600;BME280;35385;55.668;37.508;2023-04-03T04:23:47;99053.50;;;8.52;100.00
36600;BME280;35385;55.668;37.508;2023-04-03T04:24:48;99034.91;;;8.41;100.00
36600;BME280;35385;55.668;37.508;2023-04-03T04:25:48;99052.75;;;8.61;100.00
36600;BME280;35385;55.668;37.508;2023-04-03T04:26:49;99040.66;;;8.57;100.00
36600;BME280;35385;55.668;37.508;2023-04-03T04:27:50;99054.75;;;8.69;100.00
36600;BME280;35385;55.668;37.508;2023-04-03T04:28:50;99048.38;;;8.60;100.00
36600;BME280;35385;55.668;37.508;2023-04-03T04:29:51;99056.63;;;8.57;100.00
36600;BME280;35385;55.668;37.508;2023-04-03T04:30:51;99060.25;;;8.56;100.00
36600;BME280;35385;55.668;37.508;2023-04-03T04:31:52;99058.06;;;8.61;100.00
36600;BME280;35385;55.668;37.508;2023-04-03T04:32:52;99053.91;;;8.68;100.00
36600;BME280;35385;55.668;37.508;2023-04-03T04:33:53;99049.75;;;8.75;100.00
36600;BME280;35385;55.668;37.508;2023-04-03T04:34:53;99057.50;;;8.78;100.00
36600;BME280;35385;55.668;37.508;2023-04-03T04:35:54;99042.16;;;8.71;100.00
36600;BME280;35385;55.668;37.508;2023-04-03T04:36:54;99052.03;;;8.80;100.00
36600;BME280;35385;55.668;37.508;2023-04-03T04:37:55;99059.38;;;8.88;100.00
36600;BME280;35385;55.668;37.508;2023-04-03T04:38:56;99041.94;;;8.83;100.00
36600;BME280;35385;55.668;37.508;2023-04-03T04:39:58;98997.09;;;8.58;100.00
36600;BME280;35385;55.668;37.508;2023-04-03T04:40:59;99054.03;;;8.88;100.00
36600;BME280;35385;55.668;37.508;2023-04-03T04:41:59;99062.09;;;8.97;100.00
36600;BME280;35385;55.668;37.508;2023-04-03T04:43:00;99062.94;;;8.98;100.00
36600;BME280;35385;55.668;37.508;2023-04-03T04:44:00;99021.91;;;8.79;100.00
36600;BME280;35385;55.668;37.508;2023-04-03T04:45:01;99052.69;;;8.93;100.00
36600;BME280;35385;55.668;37.508;2023-04-03T04:46:06;99050.16;;;8.92;100.00
36600;BME280;35385;55.668;37.508;2023-04-03T04:47:07;99027.56;;;8.65;100.00
36600;BME280;35385;55.668;37.508;2023-04-03T04:48:08;99054.03;;;8.88;100.00
36600;BME280;35385;55.668;37.508;2023-04-03T04:49:09;99062.66;;;9.01;100.00
36600;BME280;35385;55.668;37.508;2023-04-03T04:50:09;99055.91;;;8.97;100.00
36600;BME280;35385;55.668;37.508;2023-04-03T04:51:11;99057.94;;;9.04;100.00
36600;BME280;35385;55.668;37.508;2023-04-03T04:52:11;99068.34;;;9.07;100.00
36600;BME280;35385;55.668;37.508;2023-04-03T04:53:12;99063.69;;;9.09;100.00
36600;BME280;35385;55.668;37.508;2023-04-03T04:54:12;99068.75;;;9.12;100.00
36600;BME280;35385;55.668;37.508;2023-04-03T04:55:13;99060.91;;;9.11;100.00
36600;BME280;35385;55.668;37.508;2023-04-03T04:56:13;99058.34;;;9.09;100.00
36600;BME280;35385;55.668;37.508;2023-04-03T04:57:14;99019.81;;;8.83;100.00
36600;BME280;35385;55.668;37.508;2023-04-03T04:58:15;99045.59;;;9.03;100.00
36600;BME280;35385;55.668;37.508;2023-04-03T04:59:16;99067.66;;;9.15;100.00
36600;BME280;35385;55.668;37.508;2023-04-03T05:00:17;99023.94;;;8.97;100.00
36600;BME280;35385;55.668;37.508;2023-04-03T05:01:18;99065.44;;;9.20;100.00
36600;BME280;35385;55.668;37.508;2023-04-03T05:02:18;99068.47;;;9.06;100.00
36600;BME280;35385;55.668;37.508;2023-04-03T05:03:19;99057.09;;;9.04;100.00
36600;BME280;35385;55.668;37.508;2023-04-03T05:04:20;99047.91;;;8.97;100.00
36600;BME280;35385;55.668;37.508;2023-04-03T05:05:20;99072.06;;;9.26;100.00
36600;BME280;35385;55.668;37.508;2023-04-03T05:06:21;99056.19;;;9.24;100.00
36600;BME280;35385;55.668;37.508;2023-04-03T05:07:22;99059.31;;;9.29;100.00
36600;BME280;35385;55.668;37.508;2023-04-03T05:08:22;99064.41;;;9.42;100.00
36600;BME280;35385;55.668;37.508;2023-04-03T05:09:23;99050.50;;;9.38;100.00
36600;BME280;35385;55.668;37.508;2023-04-03T05:10:23;99066.91;;;9.34;100.00
36600;BME280;35385;55.668;37.508;2023-04-03T05:11:24;99054.31;;;9.36;100.00
36600;BME280;35385;55.668;37.508;2023-04-03T05:12:25;99047.84;;;9.38;100.00
36600;BME280;35385;55.668;37.508;2023-04-03T05:13:26;99062.47;;;9.44;100.00
36600;BME280;35385;55.668;37.508;2023-04-03T05:14:26;99058.31;;;9.51;100.00
36600;BME280;35385;55.668;37.508;2023-04-03T05:15:27;99057.75;;;9.57;100.00
36600;BME280;35385;55.668;37.508;2023-04-03T05:16:27;99062.81;;;9.60;100.00
36600;BME280;35385;55.668;37.508;2023-04-03T05:17:28;99070.69;;;9.62;100.00
36600;BME280;35385;55.668;37.508;2023-04-03T05:18:28;99047.78;;;9.49;100.00
36600;BME280;35385;55.668;37.508;2023-04-03T05:19:29;99053.53;;;9.54;100.00
36600;BME280;35385;55.668;37.508;2023-04-03T05:20:30;99067.03;;;9.63;100.00
36600;BME280;35385;55.668;37.508;2023-04-03T05:21:31;99066.50;;;9.69;100.00
36600;BME280;35385;55.668;37.508;2023-04-03T05:22:32;99034.97;;;9.43;100.00